SiktMolnbas
>≥ 10km≥ 10km ≥ 2000ft≥ 2000ft
< 10km< 10km < 2000ft< 2000ft
< 8km< 8km < 1500ft< 1500ft
< 5km< 5km < 1000ft< 1000ft
< 3km< 3km < 500ft< 500ft

Nytt 18 jan 2017:

Nytt 17 jan 2017:

ESNQ (15:20 UTC)

Kiruna flygplats

METAR

SN

ESNQ 281520Z 04002KT 6000 -SN BKN006 OVC012 M15/M16 Q1000=

TAF

SN

ESNQ 281430Z 2815/2818 VRB02KT 5000 -SN OVC003 TEMPO 2815/2818 1000 SN VV010=

ESNG (15:20 UTC)

Gällivare (Kavaheden), Lapland Airport

METAR

SN

ESNG 281520Z 02003KT 6000 -SN FEW012 BKN043 M14/M16 Q1001=

TAF

SN

ESNG 281430Z 2815/2822 07005KT 5000 -SN VV015 TEMPO 2815/2822 1000 SN VV004=

ESPA (15:20 UTC)

Luleå Airport (Kallax)

METAR

SN

ESPA 281520Z 04008KT 010V070 9000 -SN OVC045 M08/M10 Q1001=

TAF

SN

ESPA AMD 281505Z 2815/2824 06008KT 8000 -SN OVC030 TEMPO 2815/2824 2000 SN -SG VV009=

ESNL (14:50 UTC)

Lycksele flygplats

METAR

SN

ESNL 281450Z 33005KT 2300 SN FEW006 OVC028 M06/M08 Q0998=

TAF

Ingen TAF hittades.

ESNU (15:20 UTC)

Umeå City Airport

METAR

SN

ESNU 281520Z 05005KT 8000 -SN OVC003 M00/M00 Q0997 RWY 14 ICE 11-25 PCT FCT 0.34=

TAF

SN

ESNU 281430Z 2815/2824 06006KT 5000 -SN SCT005 BKN015 PROB40 2815/2816 1500 -SNRA OVC002 BECMG 2816/2818 0400 FZFG VV002=

ESNO (15:20 UTC)

Örnsköldsvik flygplats

METAR

ESNO 281520Z AUTO 03004KT 340V080 8000 FZUP OVC003/// M00/M00 Q0996=

TAF

SN

ESNO 281530Z 2816/2823 03006KT 5000 -SN OVC002 TEMPO 2816/2823 1200 -SNRA OVC005=

ESNK (15:20 UTC)

Kramfors-Sollefteå flygplats

METAR

FG

ESNK 281520Z 23003KT 0500 R17/1500U R35/P2000N FG BKN003 OVC006 01/01 Q0996=

TAF

FG

ESNK 281430Z 2815/2819 VRB02KT 0250 FG OVC002 PROB40 2815/2819 1500 BKN005=

ESNN (15:20 UTC)

Sundsvall-Härnösands flygplats (Midlanda)

METAR

FG

ESNN 281520Z VRB02KT 0550 R16/1700N R34/P2000N FZFG OVC002 M00/M00 Q0996 RWY 16 DAMP 51-100 PCT FCT 0.45=

TAF

RAFG

ESNN 281430Z 2815/2822 10006KT 5000 SCT003 BKN020 PROB40 2815/2818 0700 FG VV002 BECMG 2819/2821 2000 -RA OVC004=

ESNZ (15:20 UTC)

Åre Östersund Airport (Frösön)

METAR

ESNZ 281520Z 01005KT 6000 BKN002 BKN009 OVC012 M02/M03 Q0992=

TAF

SN

ESNZ 281430Z 2815/2823 VRB02KT 8000 SCT003 BKN008 PROB40 2815/2818 0300 FZFG VV002 BECMG 2819/2821 1800 -SN VV008=

ESNS (15:20 UTC)

Skellefteå flygplats

METAR

SN

ESNS 281520Z 35009KT 5000 -SN OVC007 M06/M07 Q0999=

TAF

SNFG

ESNS 281430Z 2815/2823 06008KT 4000 -SN SCT005 BKN020 TEMPO 2815/2816 1200 SN VV004 BECMG 2816/2817 OVC002 TEMPO 2816/2821 1500 SNRA PROB40 2821/2823 0300 FG VV002=

ESGT (15:20 UTC)

Trollhättan-Vänersborgs flygplats (Malöga flygplats)

METAR

RA

ESGT 281520Z 12010KT 9999 -RA FEW005 SCT011 BKN015 04/03 Q0984=

TAF

RABR

ESGT 281430Z 2815/2818 10010KT 9000 -RA FEW010 BKN020 PROB40 2815/2818 4000 RA BR BKN009=

ESGG (15:20 UTC)

Göteborg-Landvetter flygplats

METAR

ESGG 281520Z 14007KT 9999 BKN007 03/02 Q0983 RWY 21 WET OR WATER PATCHES 51-100 PCT BA GOOD=

TAF

SHRABRCB

ESGG 281130Z 2812/2912 11010KT 8000 -RA OVC006 TEMPO 2812/2818 2500 RA BR BKN004 BECMG 2814/2816 17006KT BECMG 2818/2820 SCT012 BKN020 PROB40 2820/2909 2000 BR BKN006 TEMPO 2909/2912 2500 SHRA BR BKN006 SCT015CB=

ESMT (15:20 UTC)

Halmstads flygplats

METAR

ESMT 281520Z 16006KT 9999 FEW009 SCT012 BKN018 05/04 Q0985=

TAF

BR

ESMT 281358Z 2815/2822 18010KT 9999 BKN018 TEMPO 2815/2822 4000 BR BKN008=

ESTA (15:20 UTC)

Ängelholm-Helsingborg flygplats

METAR

ESTA 281520Z 18006KT 9999 FEW014 SCT024 05/04 Q0985=

TAF

BRCB

ESTA 281358Z 2815/2823 19010KT 9999 BKN020 TEMPO 2815/2823 3000 BR BKN008 FEW015CB=

ESTL (15:20 UTC)

Ljungbyheds flygplats

METAR

ESTL 281520Z AUTO 19006KT 170V230 9999 FEW008/// BKN010/// OVC036/// 06/05 Q0986=

TAF

RABR

ESTL AMD 281401Z 2812/2816 19008KT 9999 BKN015 TEMPO 2812/2816 4000 RADZ BR BKN007=

ESMS (15:20 UTC)

Malmö Airport

METAR

ESMS 281520Z 21010KT 9999 BKN007 OVC018 05/05 Q0986=

TAF

SHRABRCB

ESMS 281058Z 2812/2912 19010KT 4000 RADZ BR BKN004 BECMG 2812/2814 9999 NSW BKN018 TEMPO 2814/2912 4000 -SHRA BR BKN007 SCT015CB BECMG 2821/2824 26008KT=

ESMK (15:20 UTC)

Kristianstad Airport

METAR

ESMK 281520Z 19003KT 9999 FEW025 BKN042 OVC098 05/04 Q0986=

TAF

BR

ESMK 281358Z 2815/2820 16008KT 9999 BKN015 TEMPO 2815/2820 4000 BR BKN010=

ESDF (15:20 UTC)

Ronneby flygplats

METAR

RA

ESDF 281520Z 16003KT 9999 -RA SCT007 BKN011 03/03 Q0987=

TAF

FG

ESDF 281420Z 2815/2823 18006KT 8000 BKN006 TEMPO 2815/2817 NSW BKN012 BECMG 2817/2819 9999 NSW SCT012 PROB30 2819/2821 3000 BR BKN008 PROB30 2821/2823 0800 FG VV002 RMK MIL=

ESMQ (15:20 UTC)

Kalmar Airport

METAR

RA

ESMQ 281520Z 16011KT 9999 -RA SCT005 OVC014 05/04 Q0987=

TAF

RABR

ESMQ 281430Z 2815/2823 16010KT 2500 RADZ BR OVC003 BECMG 2815/2816 9000 -RA FEW006 BKN015 TEMPO 2815/2818 4000 RADZ BKN006=

ESMX (15:20 UTC)

Växjö, Smaland Airport

METAR

RA

ESMX 281520Z 16007KT 120V190 7000 -RA BKN007 04/03 Q0985=

TAF

RABR

ESMX 281430Z 2815/2821 15005KT 7000 -RA OVC006 PROB40 2815/2817 2000 RADZ BR BKN004 BECMG 2817/2819 SCT010 BKN015 PROB40 2819/2821 2000 BR BKN003=

ESGJ (15:20 UTC)

Jönköping Airport

METAR

DZ

ESGJ 281520Z 14007KT 8000 -DZ BKN006 BKN010 04/03 Q0985=

TAF

RABR

ESGJ 281430Z 2815/2824 13006KT 9000 -RADZ OVC006 TEMPO 2815/2817 4000 RADZ BKN010 BECMG 2817/2819 2500 RADZ BR BKN004 BECMG 2819/2821 6000 NSW SCT010 TEMPO 2821/2824 4000 -RADZ BR BKN006=

ESSA (15:20 UTC)

Stockholm-Arlanda flygplats

METAR

RA

ESSA 281520Z 12010KT 9999 -RA BKN006 03/02 Q0992 RWY 01L WET OR WATER PATCHES 51-100 PCT BA GOOD RWY 08 WET OR WATER PATCHES 51-100 PCT BA GOOD RWY 01R WET OR WATER PATCHES 51-100 PCT BA GOOD TEMPO 4000 DZRA BKN004=

TAF

DZFG

ESSA AMD 281320Z 2813/2912 09006KT 5000 OVC002 TEMPO 2813/2815 0200 FG BKN005 TEMPO 2815/2904 3000 DZRA BKN005 PROB40 2904/2909 0300 FG BKN005 BECMG 2909/2911 SCT002 BKN007=

ESSB (15:20 UTC)

Stockholm-Bromma flygplats

METAR

RA

ESSB 281520Z 12014KT 9999 -RA BKN007 04/03 Q0992 RWY 12 WET OR WATER PATCHES 51-100 PCT FCT 0.63=

TAF

DZBR

ESSB 281430Z 2815/2821 11010KT 9999 BKN008 TEMPO 2815/2821 2000 BR DZRA BKN004=

ESKN (15:20 UTC)

Stockholm-Skavsta flygplats

METAR

RABR

ESKN 281520Z 12013KT 3500 -RADZ BR BKN004 04/04 Q0989 RWY 26 WET OR WATER PATCHES 51-100 PCT 1 MM BA GOOD=

TAF

RABR

ESKN 281130Z 2812/2912 11012KT 8000 -RA BKN005 TEMPO 2812/2901 2000 BR DZRA BKN002 PROB40 2901/2906 4000 BR SCT006 TEMPO 2906/2912 2000 DZ BKN002=

ESSP (15:20 UTC)

Norrköping flygplats

METAR

RA

ESSP 281520Z 12012KT 6000 -RA BKN006 05/03 Q0988 RWY 09 WET OR WATER PATCHES 51-100 PCT LESS THAN 1 MM BA GOOD=

TAF

RABR

ESSP 281430Z 2815/2822 10010KT 9999 -RA BKN008 TEMPO 2815/2822 4000 DZRA BR BKN004=

ESSL (15:20 UTC)

Linköping - SAAB Flygplats

METAR

RA

ESSL 281520Z 12009KT 8000 -RA BKN005 05/05 Q0987 RWY 11 WET OR WATER PATCHES 51-100 PCT BA GOOD=

TAF

RABR

ESSL 281430Z 2815/2823 11010KT 9999 -RA BKN007 TEMPO 2815/2823 4000 BR DZRA BKN004=

ESSV (15:20 UTC)

Visby flygplats

METAR

RA

ESSV 281520Z 13014KT 3300 -RA OVC004 04/03 Q0990 RWY 21 WET OR WATER PATCHES 51-100 PCT FCT 0.78=

TAF

RABR

ESSV 281420Z 2815/2823 14016KT 6000 BKN004 TEMPO 2815/2823 2000 BR RA BKN010=

ESOW (15:20 UTC)

Stockholm-Västerås flygplats

METAR

RA

ESOW 281520Z 10008KT 070V130 9999 RA SCT007 BKN009 04/03 Q0991 RWY 19 WET OR WATER PATCHES 51-100 PCT 1 MM BA GOOD=

TAF

DZBR

ESOW 281130Z 2812/2816 09006KT 5000 OVC003 TEMPO 2812/2813 4000 BR BKN006 TEMPO 2813/2816 2000 DZRA BKN006=

ESOE (15:20 UTC)

Örebro flygplats

METAR

DZ

ESOE 281520Z 09010KT 9999 -DZ OVC007 04/03 Q0988=

TAF

RABR

ESOE 281430Z 2815/2822 09010KT 9999 -RA OVC007 TEMPO 2815/2822 4000 DZRA BR BKN004=

ESOK (15:20 UTC)

Karlstad Airport

METAR

RA

ESOK 281520Z 06011KT 9999 -RA BKN007 03/02 Q0987=

TAF

RA

ESOK 281430Z 2815/2819 09010KT 9999 -RA OVC004 TEMPO 2815/2817 4000 DZRA BKN007 TEMPO 2817/2819 3000 SNRA BKN008=

ESSD (15:20 UTC)

Borlänge, Dala Airport

METAR

ESSD 281520Z 07005KT 9999 OVC003 02/02 Q0991=

TAF

DZ

ESSD AMD 281408Z 2814/2816 10008KT 5000 -DZ BKN002 TEMPO 2814/2816 3000 SNRA=

ESGR (15:20 UTC)

Skövde flygplats

METAR

DZ

ESGR 281520Z AUTO 11006KT 090V150 9999 DZ BKN011/// OVC014/// 04/03 Q0986=

TAF

Ingen TAF hittades.

ESIB (15:20 UTC)

Såtenäs

METAR

RA

ESIB 281520Z 10009KT 9999 -RA SCT009 BKN013 04/04 Q0985=

TAF

RA

ESIB 281100Z 2812/2816 10008G18KT 9999 RA BKN010 TEMPO 2812/2816 BKN030 TEMPO 2812/2816 3000 BKN007 RMK MIL=

ESNV (15:20 UTC)

Vilhelmina flygplats

METAR

SN

ESNV 281520Z AUTO 01004KT 340V040 6000 -SN FEW013/// BKN017/// OVC021/// ///// Q0996=

TAF

Ingen TAF hittades.

ESST (15:20 UTC)

Torsby flygplats (Fryklanda)

METAR

RA

ESST 281520Z 05005KT 010V080 9999 -RA BKN024 03/03 Q0989 REDZ=

TAF

Ingen TAF hittades.

ESUT (15:20 UTC)

Hemavans flygplats

METAR

ESUT 281520Z AUTO 17016KT 9999 SCT021/// OVC027/// M08/M13 Q0995=

TAF

Ingen TAF hittades.

ESNX (15:20 UTC)

Arvidsjaur flygplats

METAR

SN

ESNX 281520Z 35003KT 290V020 8000 -SN SCT012 BKN022 M11/M13 Q0999=

TAF

SN

ESNX 281430Z 2815/2821 04006KT 5000 -SN SCT002 OVC020 TEMPO 2815/2821 1200 SG VV004=

ESIA (15:20 UTC)

Karlsborg

METAR

RA

ESIA 281520Z 11009KT 9999 -RA BKN007 04/03 Q0986=

TAF

RA

ESIA 281100Z 2812/2815 11011G21KT 8000 RA BKN008 PROB30 TEMPO 2812/2815 BKN030 TEMPO 2812/2815 3000 BKN005 RMK MIL=

ESUP (15:20 UTC)

Pajala

METAR

SN

ESUP 281520Z AUTO 05006KT 020V080 //// R11///// -SN FEW005/// M14/M16 Q1004=

TAF

Ingen TAF hittades.

ESPE (15:20 UTC)

Vidsel

METAR

SN

ESPE 281520Z AUTO 35003KT 310V010 7000 -SN BKN019/// OVC044/// M11/M12 Q1001=

TAF

ESPE CNL 281423Z 2814/2815 CNL RMK MIL=

ESCM (15:20 UTC)

Uppsala

METAR

RA

ESCM 281520Z AUTO 11009KT 9999 -RA SCT005/// BKN007/// BKN011/// OVC014/// 04/04 Q0992=

TAF

RAFG

ESCM 281125Z 2812/2815 170010KT 5000 BR BKN004 TEMPO 2812/2813 0500 FG VV002 TEMPO 2813/2815 7000 NSW BKN007 BECMG 2813/2815 5000 RA BKN005 RMK MIL=

ESKM (15:20 UTC)

Mora/Siljan

METAR

ESKM 281520Z AUTO 05005KT 9999 R16/P2000N R34///// OVC008/// 02/02 Q0991=

TAF

Ingen TAF hittades.

EKRN (15:20 UTC)

Bornholm Airport

METAR

EKRN 281520Z AUTO 21007KT 180V240 9999 // BKN039/// OVC065/// 06/06 Q0988=

TAF

SHRACB

EKRN 281356Z 2815/2823 20012KT 9999 BKN018 TEMPO 2819/2821 4000 SHRA BKN008 SCT015CB=

EFIV (15:20 UTC)

Ivalo Airport

METAR

EFIV 281520Z AUTO VRB02KT 9999 OVC004 M33/M37 Q1012=

TAF

Ingen TAF hittades.

EFKT (15:20 UTC)

Kittilä Airport

METAR

SN

EFKT 281520Z 10007KT 3000 -SN BKN027 M13/M14 Q1005=

TAF

SN

EFKT 281437Z 2815/2821 10008KT 4000 -SN OVC020 TEMPO 2815/2819 8000 TEMPO 2819/2821 2000=

EFRO (15:20 UTC)

Rovaniemi Airport

METAR

SN

EFRO 281520Z AUTO 08012KT 3900 -SN OVC021 M11/M13 Q1003=

TAF

SN

EFRO 281437Z 2815/2915 08012KT 2000 -SN SCT014 BKN025 TEMPO 2815/2822 5000 VV009 BECMG 2822/2824 8000 BKN012 TEMPO 2900/2915 4000 BKN015=

EFKE (15:20 UTC)

Kemi-Tornio Airport

METAR

SN

EFKE 281520Z 09010KT 5000 -SN OVC036 M08/M10 Q1002=

TAF

SN

EFKE 281437Z 2815/2821 09011KT 8000 -SN BKN030 TEMPO 2815/2821 2000 BKN013=

EFKS (15:20 UTC)

Kuusamo Airport

METAR

SN

EFKS 281520Z AUTO 09009KT 4500 -SN BKN015 OVC038 M14/M16 Q1005=

TAF

SN

EFKS 281129Z 2812/2814 11011KT 2500 -SN BKN020 TEMPO 2812/2814 5000=

EFOU (15:20 UTC)

Oulu Airport

METAR

SN

EFOU 281520Z AUTO 11010KT 5000 -SN OVC033 M07/M09 Q1001=

TAF

FZDZ

EFOU 281437Z 2815/2915 11011KT 4000 -SN BKN025 TEMPO 2815/2817 2000 SN BKN013 BECMG 2817/2819 8000 TEMPO 2819/2824 4000 BECMG 2900/2902 BKN010 PROB40 2902/2906 4000 -FZDZ BKN005 TEMPO 2906/2915 BKN015=

EFKI (15:20 UTC)

Kajaani Airport

METAR

SN

EFKI 281520Z 11009KT 080V140 4000 -SN BKN020 M08/M10 Q1002=

TAF

FZDZ

EFKI 281426Z 2815/2822 12011KT 3000 -SN BKN008 TEMPO 2815/2818 1200 SN SCT008 BKN020 PROB30 2815/2818 -FZDZ TEMPO 2818/2821 5000 BKN010=

EFKK (15:20 UTC)

Kokkola-Pietarsaari/Kruunupyy Airport

METAR

EFKK 281520Z AUTO 11004KT 9999 OVC011 M02/M03 Q0998=

TAF

FZDZ

EFKK 281437Z 2815/2824 12008KT 9999 -SN OVC013 TEMPO 2815/2820 4000 -FZDZ BKN007 TEMPO 2820/2824 2000 -SG OVC004=

EFVA (15:20 UTC)

Vaasa Airport

METAR

BR

EFVA 281520Z AUTO 12005KT 2800 BR VV003 00/00 Q0997=

TAF

BR

EFVA 281439Z 2815/2915 12006KT 1200 BR OVC002 TEMPO 2815/2819 5000 OVC005 BECMG 2819/2821 9999 NSW SCT005 OVC010 BECMG 2821/2823 1200 BR OVC003 TEMPO 2823/2912 8000 NSW OVC005=

EFKU (15:20 UTC)

Kuopio Airport

METAR

SN

EFKU 281520Z AUTO 11008KT 090V150 2600 -SN OVC018 M06/M07 Q1001=

TAF

FZDZ

EFKU 281426Z 2815/2915 12010KT 5000 -SN OVC006 TEMPO 2815/2818 1200 SN SCT006 BKN025 PROB40 TEMPO 2818/2903 -FZDZ BKN004 BECMG 2907/2909 9999 BKN010 TEMPO 2909/2915 BKN020=

EFJY (15:20 UTC)

Jyväskylä Airport

METAR

SHSN

EFJY 281520Z AUTO 13005KT 9999 -SHSN OVC005 M03/M03 Q0999=

TAF

FZDZ

EFJY 281439Z 2815/2915 12007KT 5000 -SN OVC003 TEMPO 2815/2822 0500 -FZDZ OVC001 TEMPO 2822/2903 3000 BECMG 2907/2909 9999 OVC005=

EFTP (15:20 UTC)

Tampere-Pirkkala Airport

METAR

SHRA

EFTP 281520Z AUTO 16005KT 9999 -SHRA OVC002 02/02 Q0998=

TAF

SNBR

EFTP 281439Z 2815/2915 16006KT 5000 BR OVC002 TEMPO 2815/2819 2000 -DZ OVC005 BECMG 2819/2821 2000 -SN BKN005=

EFPO (15:20 UTC)

Pori Airport

METAR

BR

EFPO 281520Z AUTO 11003KT 2900 BR BKN035 02/02 Q0997=

TAF

BR

EFPO AMD 281512Z 2815/2823 20005KT 3000 BR OVC005 TEMPO 2815/2817 SCT005 BKN010 TEMPO 2817/2821 2000 OVC003=

EFTU (15:20 UTC)

Turku Airport

METAR

BR

EFTU 281520Z AUTO 14007KT 3800 BR OVC002 03/02 Q0997=

TAF

RABR

EFTU 281439Z 2815/2915 17005KT 1500 BR BKN001 BECMG 2815/2817 4000 -DZ BKN003 BECMG 2817/2819 11011KT 7000 -RA BKN006 TEMPO 2819/2915 2500 -SNRA=

EFHK (15:20 UTC)

Helsinki-Vantaa Airport

METAR

SHRACB

EFHK 281520Z 11004KT 080V140 7000 -SHRA BKN005 FEW030CB 02/02 Q0999 NOSIG=

TAF

SN

EFHK 281439Z 2815/2915 18009KT 9000 -DZ BKN006 TEMPO 2815/2817 3000 DZ BKN004 TEMPO 2817/2824 6000 BECMG 2900/2902 2500 -SN TEMPO 2902/2915 5000 -SNRA=

EFMA (15:20 UTC)

Mariehamn Airport

METAR

EFMA 281520Z AUTO 14010KT 6000 OVC002 04/03 Q0995=

TAF

DZ

EFMA AMD 281543Z 2815/2824 13010KT 3000 -DZ BKN001 BECMG 2815/2817 8000 BKN005 TEMPO 2817/2824 3000 -DZRA=

EKSB (15:20 UTC)

Sønderborg Airport

METAR

EKSB 281520Z 22003KT 9999 SCT015 BKN020 06/04 Q0985=

TAF

SHRACB

EKSB 281421Z 2815/2823 22008KT 9999 BKN020 TEMPO 2815/2823 4000 SHRA BKN008 SCT015CB=

EKSP (15:20 UTC)

Vojens Airport

METAR

EKSP 281520Z 23008KT 9999 FEW014 BKN022 05/02 Q0984 TEMPO 4000 SHRA SCT020CB=

TAF

SHRABRCB

EKSP 281410Z 2815/2915 24012KT 9999 BKN020 TEMPO 2815/2911 4000 SHRA BR BKN008 SCT020CB TEMPO 2911/2915 28015G25KT 5000 SHRA BKN012 SCT020CB=

EKEB (15:20 UTC)

Esbjerg Airport

METAR

EKEB 281520Z AUTO 22008KT 9999 OVC022/// 06/04 Q0984=

TAF

SHRACB

EKEB 281356Z 2815/2823 24012KT 9999 BKN015 TEMPO 2815/2821 4000 SHRA BKN008 SCT015CB=

EKYT (15:24 UTC)

Aalborg Airport

METAR

EKYT 281524Z AUTO 17010KT 9999 FEW010/// SCT015/// BKN018/// 05/04 Q0981=

TAF

SHRACB

EKYT 281412Z 2815/2915 17012KT 9999 BKN020 TEMPO 2815/2915 4000 -SHRA BKN010 SCT020CB BECMG 2817/2820 23012KT BECMG 2909/2912 27015KT=

EKKA (15:25 UTC)

Karup Airport

METAR

RA

EKKA 281525Z AUTO 22011KT 7000 -RA BKN010/// 05/04 Q0982=

TAF

SHRABRCB

EKKA 281412Z 2815/2915 21010KT 9999 SCT010 BKN020 TEMPO 2815/2818 23012G22KT 4000 -SHRA BKN010 SCT020CB TEMPO 2818/2915 4000 -SHRA BR BKN010 SCT020CB BECMG 2822/2901 26010KT=

EKBI (15:20 UTC)

Billund Airport

METAR

EKBI 281520Z AUTO 21009KT 9999 BKN015/// 05/04 Q0983=

TAF

SHRACB

EKBI 281109Z 2812/2912 22010KT 9999 BKN015 TEMPO 2812/2912 4000 SHRA BKN008 SCT015CB=

EKVD (15:20 UTC)

Kolding Airport

METAR

EKVD 281520Z 22009KT 9999 BKN014 05/03 Q0984=

TAF

SHRACB

EKVD 281152Z 2812/2817 23015KT 9999 BKN020 TEMPO 2812/2817 4000 SHRA BKN008 SCT015CB=

EKOD (14:50 UTC)

Odense Airport

METAR

EKOD 281450Z 20007KT 9999 FEW025 BKN029 BKN033 05/04 Q0985=

TAF

SHRACB

EKOD 281152Z 2812/2816 21010KT 9999 BKN020 TEMPO 2812/2816 4000 SHRA BKN008 SCT015CB=

EKCH (15:20 UTC)

Copenhagen Airport, Kastrup

METAR

EKCH 281520Z AUTO 19011KT 9999 BKN043/// 06/05 Q0986 NOSIG=

TAF

SHRABRCB

EKCH 281059Z 2812/2912 19015KT 9999 BKN018 TEMPO 2812/2912 4000 -SHRA BR BKN008 SCT015CB BECMG 2820/2823 26008KT=

EKRK (15:20 UTC)

Copenhagen Airport, Roskilde

METAR

EKRK 281520Z AUTO 20008KT 9999 FEW014/// OVC039/// 06/04 Q0985=

TAF

SHRABRCB

EKRK 281356Z 2815/2824 20010KT 9999 BKN018 TEMPO 2815/2821 4000 -SHRA BR BKN008 SCT015CB=

ENRY (14:50 UTC)

Moss flygplats, Rygge

METAR

RA

ENRY 281450Z 05008KT 9999 -RA SCT009 BKN012 04/03 Q0986=

TAF

RABR

ENRY 281100Z 2812/2912 04010KT 8000 -RA SCT003 BKN010 TEMPO 2812/2905 2000 RADZ BR OVC003 PROB30 2815/2822 1400 RASN BR BECMG 2903/2905 15008KT TEMPO 2905/2912 BKN006=

ENGM (15:20 UTC)

Oslo flygplats, Gardermoen

METAR

RA

ENGM 281520Z 02010KT 8000 -RASN FEW005 BKN009 01/01 Q0987 NOSIG=

TAF

RABR

ENGM 281100Z 2812/2912 04008KT 9000 -RASN SCT003 BKN010 TEMPO 2814/2912 2000 SNRA BR OVC003 PROB30 2816/2902 1400 SN=

ENTO (15:20 UTC)

Sandefjord flygplats, Torp

METAR

RA

ENTO 281520Z 04012KT 010V080 8000 RA BKN004 OVC009 04/04 Q0985 NOSIG=

TAF

RABR

ENTO 281100Z 2812/2912 04010KT 8000 -RA SCT002 BKN010 TEMPO 2812/2905 2000 RADZ BR OVC002 PROB30 2815/2822 1400 RASN BR BECMG 2903/2905 15008KT TEMPO 2905/2912 BKN006=

ENCN (15:20 UTC)

Kristiansand flygplats, Kjevik

METAR

RABR

ENCN 281520Z 03010KT 5000 RA BR OVC009 02/02 Q0981 RERA=

TAF

RABR

ENCN 281400Z 2815/2822 06012KT 8000 -RA SCT004 BKN012 TEMPO 2815/2822 2500 RADZ BR OVC004=

ENZV (15:20 UTC)

Stavanger-Sola flygplats

METAR

ENZV 281520Z 35008KT 9999 FEW035 BKN045 05/00 Q0983 NOSIG=

TAF

RABR

ENZV 281100Z 2812/2912 02012KT 9999 -RA FEW020 BKN040 TEMPO 2818/2907 4000 RASN BKN007 BECMG 2823/2902 VRB06KT PROB30 2900/2906 1500 BR OVC003=

ENHD (15:20 UTC)

Haugesund flygplats, Karmøy

METAR

DZ

ENHD 281520Z 02008KT 9999 -DZ FEW019 SCT032 04/M01 Q0983=

TAF

RA

ENHD 281400Z 2815/2822 05008KT 9999 FEW030 BKN090 PROB30 2815/2822 4000 RASN=

ENBR (15:20 UTC)

Bergen flygplats, Flesland

METAR

ENBR 281520Z 11003KT 9999 FEW055 SCT085 BKN130 01/M00 Q0985 NOSIG RMK WIND 1200FT 10004KT=

TAF

RABR

ENBR 281100Z 2812/2912 VRB06KT 9999 FEW020 BKN100 BECMG 2903/2906 4000 RASN BR BKN012 PROB40 2906/2912 1500 SNRA VV007=

ENBL (15:20 UTC)

Førde flygplats, Bringeland

METAR

ENBL 281520Z 02005KT CAVOK 01/M07 Q0986=

TAF

Ingen TAF hittades.

ENOV (15:20 UTC)

Ørsta-Volda flygplats, Hovden

METAR

ENOV 281520Z 00000KT CAVOK M02/M05 Q0988 RMK WIND 2175FT 14010KT=

TAF

Ingen TAF hittades.

ENML (15:20 UTC)

Molde flygplats, Årø

METAR

ENML 281520Z 03008KT CAVOK 01/M04 Q0989=

TAF

ENML 281400Z 2815/2822 06008KT CAVOK=

ENKB (15:20 UTC)

Kristiansund flygplats, Kvernberget

METAR

ENKB 281520Z 08006KT 050V120 CAVOK 02/M07 Q0989 RMK WIND 745FT 13013KT=

TAF

ENKB 281400Z 2815/2822 11005KT CAVOK=

ENRO (15:20 UTC)

Røros flygplats

METAR

ENRO 281520Z VRB04KT 9999 FEW016 M09/M10 Q0990=

TAF

ENRO 281100Z 2812/2820 VRB05KT 9999 FEW030 PROB30 2818/2820 BKN008=

ENVA (15:20 UTC)

Trondheim flygplats, Værnes

METAR

ENVA 281520Z 09004KT CAVOK 00/M03 Q0992 NOSIG RMK WIND 670FT 15011KT=

TAF

ENVA 281100Z 2812/2912 10007KT CAVOK=

ENOL (15:20 UTC)

Ørland flygplats

METAR

ENOL 281520Z 13007KT CAVOK 02/M02 Q0990 NOSIG=

TAF

SN

ENOL 281100Z 2812/2912 12012KT 9999 FEW025 TEMPO 2903/2912 12018G28KT PROB30 2903/2906 4000 -SNRA VV012=

ENRM (15:20 UTC)

Rørvik flygplats, Ryum

METAR

ENRM 281520Z 06005KT CAVOK M01/M03 Q0992=

TAF

SHRASNCB

ENRM AMD 281209Z 2812/2813 VRB07KT 9999 -SHRASN FEW012CB SCT025 TEMPO 2812/2813 13015KT 1500 SHSN VV008=

ENBN (15:20 UTC)

Brønnøysund flygplats, Brønnøy

METAR

SHRACB

ENBN 281520Z VRB02KT 9999 VCSH FEW016CB SCT030 BKN043 02/M04 Q0993=

TAF

SHSN

ENBN 281400Z 2815/2824 12008KT 9999 FEW015 BKN040 TEMPO 2815/2816 2000 SHSN VV012=

ENRA (15:20 UTC)

Mo i Rana flygplats, Røssvoll

METAR

ENRA 281520Z 08015G27KT 9999 SCT040 BKN055 M04/M11 Q0997=

TAF

ENRA 281400Z 2815/2823 09008KT 9999 BKN050 TEMPO 2815/2818 09015G25KT DRSN=

ENBO (15:20 UTC)

Bodö flygplats

METAR

ENBO 281520Z 09026KT 9999 FEW040 BKN060 M03/M10 Q0994 TEMPO 10030G40KT=

TAF

ENBO 281100Z 2812/2912 10025KT 9999 FEW020 SCT080 TEMPO 2812/2912 10030G40KT=

ENSH (15:20 UTC)

Svolvær flygplats, Helle

METAR

ENSH 281520Z 06015KT 9999 BKN044 M01/M07 Q0995 RMK WIND 150FT 05026KT=

TAF

ENSH 281400Z 2816/2822 08015KT 9999 BKN040=

ENAN (15:20 UTC)

Andøya flygplats

METAR

ENAN 281520Z 14017KT CAVOK M02/M08 Q0996=

TAF

SN

ENAN 281100Z 2812/2912 13020KT 9999 FEW045 SCT100 PROB30 2903/2909 4000 -SN VV012=

ENEV (15:20 UTC)

Harstad-Narvik flygplats

METAR

ENEV 281520Z 11015KT 9999 FEW049 SCT076 BKN100 M05/M12 Q0996 RMK WIND 1400FT 11020KT=

TAF

ENEV 281400Z 2815/2822 11015KT 9999 FEW045 SCT060 TEMPO 2815/2822 11020G30KT=

ENDU (15:20 UTC)

Bardufoss flygplats

METAR

ENDU 281520Z 12012KT 9999 FEW030 BKN080 M07/M14 Q0998 TEMPO 12015G25KT RMK WIND 1100FT 09009KT WIND 2200FT 11022KT=

TAF

ENDU 281100Z 2812/2912 12008KT 9999 FEW030 SCT080 TEMPO 2812/2822 12015G25KT=

ENTC (15:20 UTC)

Tromsø flygplats

METAR

ENTC 281520Z 18011KT 150V220 CAVOK M05/M11 Q0998 NOSIG RMK WIND 2600FT 16033KT=

TAF

ENTC 281100Z 2812/2912 18008KT 9999 FEW030 TEMPO 2812/2912 18020KT=

ENAT (14:50 UTC)

Alta flygplats

METAR

SN

ENAT 281450Z 14008KT 9999 -SN FEW035 BKN092 M12/M17 Q1009 RMK WIND 700FT 17021KT=

TAF

ENAT 281400Z 2815/2823 16008KT 9999 FEW030=

ENNA (15:20 UTC)

Lakselv flygplats

METAR

ENNA 281520Z 17016KT CAVOK M15/M18 Q1011 RMK WIND 1800FT 15042KT=

TAF

SN

ENNA 281100Z 2812/2912 18012KT 9999 FEW010 TEMPO 2812/2912 18025KT DRSN TEMPO 2902/2912 4000 -SN VV012=

ENHF (15:20 UTC)

Hammerfest flygplats

METAR

ENHF 281520Z 12016G28KT 9999 FEW020 M12/M17 Q1008 RMK WIND 1254FT 14043KT=

TAF

ENHF 281400Z 2815/2824 12015KT 9999 FEW020 TEMPO 2815/2824 14020G35KT DRSN=

ENKR (15:20 UTC)

Kirkenes Airport, Høybuktmoen

METAR

FG

ENKR 281520Z 18003KT 8000 VCFG SCT001 M28/M31 Q1013 RMK WIND 731FT 08007KT=

TAF

ENKR 281400Z 2815/2824 18005KT 9999 FEW001 TEMPO 2815/2824 0700 FZFG VV001=

ENLK (15:20 UTC)

Leknes Airport

METAR

SHRA

ENLK 281520Z 13005KT 9999 VCSH SCT025 BKN035 00/M06 Q0994=

TAF

Ingen TAF hittades.

ENST (15:20 UTC)

Sandnessjøen Airport, Stokka

METAR

SHRA

ENST 281520Z 10005KT 070V140 9999 VCSH FEW030 BKN035 01/M06 Q0993 RMK WIND 300FT 11006KT=

TAF

Ingen TAF hittades.

ENSB (15:20 UTC)

Svalbard Airport, Longyear

METAR

ENSB 281520Z 25003KT CAVOK M15/M21 Q1018 RMK WIND 1400FT 12008KT=

TAF

ENSB 281100Z 2812/2912 12008KT CAVOK TEMPO 2906/2912 12018KT=

ENSK (15:20 UTC)

Stokmarknes Airport, Skagen

METAR

ENSK 281520Z 13014KT 9999 FEW025 SCT050 BKN075 M02/M07 Q0995=

TAF

Ingen TAF hittades.

ENSR (15:20 UTC)

Sørkjosen Airport

METAR

ENSR 281520Z 15032G42KT 9999 FEW035 SCT080 M08/M14 Q1002 RMK WIND 1119FT 13025KT=

TAF

Ingen TAF hittades.